sensor_id;sensor_type;location;lat;lon;timestamp;pressure;altitude;pressure_sealevel;temperature;humidity
55271;BME280;41132;47.162;9.470;2022-07-15T00:02:05;96644.41;;;23.25;68.28
55271;BME280;41132;47.162;9.470;2022-07-15T00:04:30;96651.88;;;23.23;68.11
55271;BME280;41132;47.162;9.470;2022-07-15T00:06:56;96650.00;;;23.12;68.24
55271;BME280;41132;47.162;9.470;2022-07-15T00:09:21;96649.19;;;23.23;68.28
55271;BME280;41132;47.162;9.470;2022-07-15T00:12:07;96642.56;;;23.26;67.94
55271;BME280;41132;47.162;9.470;2022-07-15T00:14:32;96639.41;;;23.17;69.51
55271;BME280;41132;47.162;9.470;2022-07-15T00:16:57;96635.19;;;23.09;68.23
55271;BME280;41132;47.162;9.470;2022-07-15T00:19:23;96649.88;;;23.07;68.98
55271;BME280;41132;47.162;9.470;2022-07-15T00:21:48;96643.22;;;23.09;69.76
55271;BME280;41132;47.162;9.470;2022-07-15T00:24:13;96650.00;;;23.24;70.02
55271;BME280;41132;47.162;9.470;2022-07-15T00:26:39;96653.38;;;23.19;69.35
55271;BME280;41132;47.162;9.470;2022-07-15T00:29:04;96645.22;;;23.14;70.38
55271;BME280;41132;47.162;9.470;2022-07-15T00:31:29;96651.75;;;23.18;70.47
55271;BME280;41132;47.162;9.470;2022-07-15T00:33:55;96648.25;;;23.18;69.24
55271;BME280;41132;47.162;9.470;2022-07-15T00:36:20;96641.97;;;23.12;71.09
55271;BME280;41132;47.162;9.470;2022-07-15T00:38:45;96638.59;;;23.17;69.67
55271;BME280;41132;47.162;9.470;2022-07-15T00:41:11;96645.19;;;23.02;70.74
55271;BME280;41132;47.162;9.470;2022-07-15T00:43:36;96645.19;;;23.02;71.32
55271;BME280;41132;47.162;9.470;2022-07-15T00:46:01;96635.16;;;22.86;72.01
55271;BME280;41132;47.162;9.470;2022-07-15T00:48:27;96651.22;;;22.98;71.76
55271;BME280;41132;47.162;9.470;2022-07-15T00:50:52;96656.97;;;23.01;72.00
55271;BME280;41132;47.162;9.470;2022-07-15T00:53:20;96650.44;;;23.09;71.14
55271;BME280;41132;47.162;9.470;2022-07-15T00:55:46;96652.44;;;23.02;71.68
55271;BME280;41132;47.162;9.470;2022-07-15T00:58:18;96652.50;;;22.95;72.36
55271;BME280;41132;47.162;9.470;2022-07-15T01:00:47;96650.81;;;23.01;71.23
55271;BME280;41132;47.162;9.470;2022-07-15T01:03:15;96661.91;;;22.98;70.23
55271;BME280;41132;47.162;9.470;2022-07-15T01:05:41;96666.88;;;23.01;70.03
55271;BME280;41132;47.162;9.470;2022-07-15T01:08:06;96648.28;;;22.76;72.00
55271;BME280;41132;47.162;9.470;2022-07-15T01:10:34;96660.13;;;22.80;72.04
55271;BME280;41132;47.162;9.470;2022-07-15T01:13:01;96669.00;;;22.80;72.13
55271;BME280;41132;47.162;9.470;2022-07-15T01:15:28;96671.72;;;22.62;72.37
55271;BME280;41132;47.162;9.470;2022-07-15T01:17:56;96671.28;;;22.65;73.46
55271;BME280;41132;47.162;9.470;2022-07-15T01:20:22;96667.03;;;22.45;72.78
55271;BME280;41132;47.162;9.470;2022-07-15T01:22:47;96672.06;;;22.54;73.99
55271;BME280;41132;47.162;9.470;2022-07-15T01:25:13;96680.22;;;22.59;71.25
55271;BME280;41132;47.162;9.470;2022-07-15T01:27:39;96672.16;;;22.47;73.88
55271;BME280;41132;47.162;9.470;2022-07-15T01:30:07;96662.66;;;22.14;73.39
55271;BME280;41132;47.162;9.470;2022-07-15T01:32:33;96680.72;;;22.19;73.28
55271;BME280;41132;47.162;9.470;2022-07-15T01:34:59;96670.41;;;22.22;74.57
55271;BME280;41132;47.162;9.470;2022-07-15T01:37:24;96686.38;;;22.10;74.32
55271;BME280;41132;47.162;9.470;2022-07-15T01:39:49;96677.47;;;22.17;74.78
55271;BME280;41132;47.162;9.470;2022-07-15T01:42:15;96674.56;;;22.00;74.32
55271;BME280;41132;47.162;9.470;2022-07-15T01:44:40;96685.03;;;21.83;74.09
55271;BME280;41132;47.162;9.470;2022-07-15T01:47:06;96682.22;;;21.96;74.92
55271;BME280;41132;47.162;9.470;2022-07-15T01:49:31;96685.09;;;22.13;74.82
55271;BME280;41132;47.162;9.470;2022-07-15T01:51:58;96690.66;;;22.11;74.45
55271;BME280;41132;47.162;9.470;2022-07-15T01:54:25;96678.34;;;22.10;73.66
55271;BME280;41132;47.162;9.470;2022-07-15T01:56:52;96688.56;;;22.14;73.99
55271;BME280;41132;47.162;9.470;2022-07-15T01:59:18;96684.16;;;22.07;74.31
55271;BME280;41132;47.162;9.470;2022-07-15T02:01:44;96693.50;;;22.17;75.73
55271;BME280;41132;47.162;9.470;2022-07-15T02:04:10;96681.63;;;22.13;73.78
55271;BME280;41132;47.162;9.470;2022-07-15T02:06:38;96686.31;;;21.99;73.50
55271;BME280;41132;47.162;9.470;2022-07-15T02:09:03;96681.97;;;21.79;73.31
55271;BME280;41132;47.162;9.470;2022-07-15T02:11:29;96683.56;;;21.87;73.39
55271;BME280;41132;47.162;9.470;2022-07-15T02:13:55;96682.09;;;21.47;73.72
55271;BME280;41132;47.162;9.470;2022-07-15T02:16:25;96668.16;;;21.64;74.54
55271;BME280;41132;47.162;9.470;2022-07-15T02:18:51;96683.84;;;21.60;73.27
55271;BME280;41132;47.162;9.470;2022-07-15T02:21:16;96673.88;;;21.49;74.80
55271;BME280;41132;47.162;9.470;2022-07-15T02:23:41;96681.09;;;21.48;73.95
55271;BME280;41132;47.162;9.470;2022-07-15T02:26:07;96687.09;;;21.62;74.86
55271;BME280;41132;47.162;9.470;2022-07-15T02:28:32;96680.94;;;21.62;73.58
55271;BME280;41132;47.162;9.470;2022-07-15T02:30:58;96674.25;;;21.53;74.29
55271;BME280;41132;47.162;9.470;2022-07-15T02:33:23;96685.31;;;21.56;74.85
55271;BME280;41132;47.162;9.470;2022-07-15T02:35:49;96680.69;;;21.45;74.51
55271;BME280;41132;47.162;9.470;2022-07-15T02:38:15;96689.25;;;21.54;73.26
55271;BME280;41132;47.162;9.470;2022-07-15T02:40:40;96675.09;;;21.53;74.83
55271;BME280;41132;47.162;9.470;2022-07-15T02:43:06;96687.47;;;21.66;73.33
55271;BME280;41132;47.162;9.470;2022-07-15T02:45:34;96683.81;;;21.42;73.17
55271;BME280;41132;47.162;9.470;2022-07-15T02:47:59;96689.50;;;21.45;75.17
55271;BME280;41132;47.162;9.470;2022-07-15T02:50:25;96679.44;;;21.47;75.69
55271;BME280;41132;47.162;9.470;2022-07-15T02:52:50;96684.63;;;21.42;74.20
55271;BME280;41132;47.162;9.470;2022-07-15T02:55:16;96692.16;;;21.20;75.93
55271;BME280;41132;47.162;9.470;2022-07-15T02:57:42;96689.59;;;21.32;75.40
55271;BME280;41132;47.162;9.470;2022-07-15T03:00:10;96704.50;;;21.21;74.25
55271;BME280;41132;47.162;9.470;2022-07-15T03:02:37;96713.31;;;21.22;74.97
55271;BME280;41132;47.162;9.470;2022-07-15T03:05:03;96708.03;;;21.15;74.23
55271;BME280;41132;47.162;9.470;2022-07-15T03:07:29;96703.09;;;21.19;75.35
55271;BME280;41132;47.162;9.470;2022-07-15T03:09:55;96699.09;;;21.03;74.69
55271;BME280;41132;47.162;9.470;2022-07-15T03:12:20;96703.72;;;21.14;72.91
55271;BME280;41132;47.162;9.470;2022-07-15T03:14:45;96695.50;;;21.16;75.08
55271;BME280;41132;47.162;9.470;2022-07-15T03:17:11;96708.56;;;21.24;74.77
55271;BME280;41132;47.162;9.470;2022-07-15T03:19:36;96703.22;;;20.99;74.50
55271;BME280;41132;47.162;9.470;2022-07-15T03:22:02;96717.81;;;20.96;75.19
55271;BME280;41132;47.162;9.470;2022-07-15T03:24:27;96698.34;;;20.89;75.93
55271;BME280;41132;47.162;9.470;2022-07-15T03:26:52;96714.28;;;21.02;75.69
55271;BME280;41132;47.162;9.470;2022-07-15T03:29:18;96706.72;;;20.99;75.69
55271;BME280;41132;47.162;9.470;2022-07-15T03:31:44;96718.50;;;20.85;74.76
55271;BME280;41132;47.162;9.470;2022-07-15T03:34:09;96714.56;;;20.94;75.66
55271;BME280;41132;47.162;9.470;2022-07-15T03:36:36;96714.88;;;21.04;75.77
55271;BME280;41132;47.162;9.470;2022-07-15T03:39:03;96730.63;;;21.13;76.06
55271;BME280;41132;47.162;9.470;2022-07-15T03:41:28;96725.28;;;21.13;76.61
55271;BME280;41132;47.162;9.470;2022-07-15T03:43:53;96725.13;;;21.08;75.60
55271;BME280;41132;47.162;9.470;2022-07-15T03:46:19;96735.16;;;21.12;75.49
55271;BME280;41132;47.162;9.470;2022-07-15T03:48:44;96731.94;;;21.03;74.99
55271;BME280;41132;47.162;9.470;2022-07-15T03:51:09;96696.63;;;20.76;74.69
55271;BME280;41132;47.162;9.470;2022-07-15T03:53:35;96729.69;;;21.00;75.53
55271;BME280;41132;47.162;9.470;2022-07-15T03:56:00;96728.25;;;20.98;75.50
55271;BME280;41132;47.162;9.470;2022-07-15T03:58:25;96730.28;;;21.02;76.82
55271;BME280;41132;47.162;9.470;2022-07-15T04:00:51;96730.28;;;21.02;75.27
55271;BME280;41132;47.162;9.470;2022-07-15T04:03:16;96734.31;;;21.12;74.27
55271;BME280;41132;47.162;9.470;2022-07-15T04:05:43;96733.66;;;21.16;76.31
55271;BME280;41132;47.162;9.470;2022-07-15T04:08:08;96736.88;;;21.00;74.96
55271;BME280;41132;47.162;9.470;2022-07-15T04:10:34;96742.81;;;21.02;76.86
55271;BME280;41132;47.162;9.470;2022-07-15T04:13:00;96747.13;;;21.03;75.04
55271;BME280;41132;47.162;9.470;2022-07-15T04:15:26;96739.16;;;20.96;75.17
55271;BME280;41132;47.162;9.470;2022-07-15T04:17:51;96741.50;;;20.79;76.53
55271;BME280;41132;47.162;9.470;2022-07-15T04:20:16;96750.09;;;20.88;76.65
55271;BME280;41132;47.162;9.470;2022-07-15T04:22:44;96752.78;;;20.81;75.92
55271;BME280;41132;47.162;9.470;2022-07-15T04:25:11;96754.78;;;20.93;76.99
55271;BME280;41132;47.162;9.470;2022-07-15T04:27:37;96737.00;;;20.80;75.56
55271;BME280;41132;47.162;9.470;2022-07-15T04:30:04;96728.56;;;20.83;75.43
55271;BME280;41132;47.162;9.470;2022-07-15T04:32:30;96753.28;;;21.03;76.37
55271;BME280;41132;47.162;9.470;2022-07-15T04:34:56;96758.00;;;21.01;77.29
55271;BME280;41132;47.162;9.470;2022-07-15T04:37:21;96761.19;;;20.85;79.41
55271;BME280;41132;47.162;9.470;2022-07-15T04:39:47;96757.59;;;20.98;75.97
55271;BME280;41132;47.162;9.470;2022-07-15T04:42:12;96749.41;;;20.99;74.97
55271;BME280;41132;47.162;9.470;2022-07-15T04:44:38;96760.47;;;21.03;76.08
55271;BME280;41132;47.162;9.470;2022-07-15T04:47:03;96754.72;;;20.99;78.99
55271;BME280;41132;47.162;9.470;2022-07-15T04:49:29;96774.91;;;20.89;77.46
55271;BME280;41132;47.162;9.470;2022-07-15T04:52:13;96763.94;;;21.03;75.55
55271;BME280;41132;47.162;9.470;2022-07-15T04:54:39;96763.84;;;21.17;72.36
55271;BME280;41132;47.162;9.470;2022-07-15T04:57:04;96768.78;;;21.13;78.21
55271;BME280;41132;47.162;9.470;2022-07-15T04:59:30;96755.00;;;20.84;76.41
55271;BME280;41132;47.162;9.470;2022-07-15T05:01:55;96764.78;;;20.65;77.51
55271;BME280;41132;47.162;9.470;2022-07-15T05:04:21;96772.50;;;20.80;78.86
55271;BME280;41132;47.162;9.470;2022-07-15T05:06:47;96776.50;;;20.58;77.25
55271;BME280;41132;47.162;9.470;2022-07-15T05:09:12;96772.00;;;20.58;77.82
55271;BME280;41132;47.162;9.470;2022-07-15T05:11:38;96765.72;;;20.78;81.03
55271;BME280;41132;47.162;9.470;2022-07-15T05:14:03;96762.03;;;20.79;80.24
55271;BME280;41132;47.162;9.470;2022-07-15T05:16:28;96762.53;;;21.01;76.17
55271;BME280;41132;47.162;9.470;2022-07-15T05:18:54;96759.28;;;20.92;75.69
55271;BME280;41132;47.162;9.470;2022-07-15T05:21:20;96763.50;;;21.06;77.69
55271;BME280;41132;47.162;9.470;2022-07-15T05:23:45;96746.97;;;20.91;76.99
55271;BME280;41132;47.162;9.470;2022-07-15T05:26:10;96758.47;;;21.23;69.56
55271;BME280;41132;47.162;9.470;2022-07-15T05:28:37;96757.06;;;21.14;73.26
55271;BME280;41132;47.162;9.470;2022-07-15T05:31:04;96768.84;;;21.06;76.52
55271;BME280;41132;47.162;9.470;2022-07-15T05:33:30;96769.19;;;20.85;72.56
55271;BME280;41132;47.162;9.470;2022-07-15T05:35:55;96771.22;;;20.90;73.07
55271;BME280;41132;47.162;9.470;2022-07-15T05:38:21;96778.69;;;21.06;75.80
55271;BME280;41132;47.162;9.470;2022-07-15T05:40:46;96773.69;;;21.16;69.06
55271;BME280;41132;47.162;9.470;2022-07-15T05:43:11;96769.69;;;21.32;68.12
55271;BME280;41132;47.162;9.470;2022-07-15T05:45:37;96757.34;;;21.38;65.93
55271;BME280;41132;47.162;9.470;2022-07-15T05:48:03;96770.41;;;21.46;66.68
55271;BME280;41132;47.162;9.470;2022-07-15T05:50:28;96785.53;;;21.59;67.20
55271;BME280;41132;47.162;9.470;2022-07-15T05:52:53;96764.66;;;21.49;66.60
55271;BME280;41132;47.162;9.470;2022-07-15T05:55:19;96773.47;;;21.50;70.89
55271;BME280;41132;47.162;9.470;2022-07-15T05:57:45;96778.44;;;21.46;71.94
55271;BME280;41132;47.162;9.470;2022-07-15T06:00:11;96783.19;;;21.44;70.88
55271;BME280;41132;47.162;9.470;2022-07-15T06:02:36;96790.25;;;21.25;72.33
55271;BME280;41132;47.162;9.470;2022-07-15T06:05:02;96784.50;;;21.28;72.76
55271;BME280;41132;47.162;9.470;2022-07-15T06:07:27;96798.03;;;21.33;73.00
55271;BME280;41132;47.162;9.470;2022-07-15T06:09:53;96794.31;;;21.34;72.21
55271;BME280;41132;47.162;9.470;2022-07-15T06:12:18;96796.31;;;21.45;71.39
55271;BME280;41132;47.162;9.470;2022-07-15T06:14:43;96794.69;;;21.44;74.23
55271;BME280;41132;47.162;9.470;2022-07-15T06:17:09;96795.41;;;21.58;74.43
55271;BME280;41132;47.162;9.470;2022-07-15T06:19:34;96796.66;;;21.56;70.51
55271;BME280;41132;47.162;9.470;2022-07-15T06:22:00;96800.22;;;21.68;70.64
55271;BME280;41132;47.162;9.470;2022-07-15T06:24:25;96791.00;;;21.89;68.57
55271;BME280;41132;47.162;9.470;2022-07-15T06:26:51;96791.50;;;22.23;68.32
55271;BME280;41132;47.162;9.470;2022-07-15T06:29:16;96779.44;;;21.95;68.00
55271;BME280;41132;47.162;9.470;2022-07-15T06:31:42;96788.44;;;22.19;68.33
55271;BME280;41132;47.162;9.470;2022-07-15T06:34:07;96790.16;;;22.69;67.68
55271;BME280;41132;47.162;9.470;2022-07-15T06:36:33;96788.81;;;22.78;64.75
55271;BME280;41132;47.162;9.470;2022-07-15T06:38:58;96787.97;;;23.38;66.53
55271;BME280;41132;47.162;9.470;2022-07-15T06:41:24;96782.41;;;23.40;63.84
55271;BME280;41132;47.162;9.470;2022-07-15T06:43:49;96780.34;;;24.12;62.50
55271;BME280;41132;47.162;9.470;2022-07-15T06:46:15;96775.00;;;23.89;62.09
55271;BME280;41132;47.162;9.470;2022-07-15T06:48:40;96786.59;;;23.47;62.93
55271;BME280;41132;47.162;9.470;2022-07-15T06:51:07;96775.91;;;23.71;57.86
55271;BME280;41132;47.162;9.470;2022-07-15T06:53:32;96778.81;;;23.69;62.43
55271;BME280;41132;47.162;9.470;2022-07-15T06:55:58;96768.59;;;22.64;64.47
55271;BME280;41132;47.162;9.470;2022-07-15T06:58:23;96786.03;;;22.36;63.53
55271;BME280;41132;47.162;9.470;2022-07-15T07:00:49;96788.25;;;22.58;64.91
55271;BME280;41132;47.162;9.470;2022-07-15T07:03:14;96783.63;;;22.65;66.07
55271;BME280;41132;47.162;9.470;2022-07-15T07:05:39;96785.81;;;22.86;65.95
55271;BME280;41132;47.162;9.470;2022-07-15T07:08:05;96783.34;;;23.03;65.23
55271;BME280;41132;47.162;9.470;2022-07-15T07:10:31;96788.13;;;23.01;64.75
55271;BME280;41132;47.162;9.470;2022-07-15T07:12:59;96795.47;;;22.87;65.92
55271;BME280;41132;47.162;9.470;2022-07-15T07:15:26;96796.69;;;22.55;66.39
55271;BME280;41132;47.162;9.470;2022-07-15T07:17:51;96801.38;;;22.41;66.06
55271;BME280;41132;47.162;9.470;2022-07-15T07:20:17;96812.69;;;22.43;66.47
55271;BME280;41132;47.162;9.470;2022-07-15T07:22:42;96801.50;;;22.09;67.28
55271;BME280;41132;47.162;9.470;2022-07-15T07:25:08;96799.41;;;21.93;67.76
55271;BME280;41132;47.162;9.470;2022-07-15T07:27:34;96797.69;;;22.42;70.64
55271;BME280;41132;47.162;9.470;2022-07-15T07:29:59;96802.03;;;22.91;66.10
55271;BME280;41132;47.162;9.470;2022-07-15T07:32:27;96797.06;;;23.07;65.50
55271;BME280;41132;47.162;9.470;2022-07-15T07:34:52;96797.66;;;23.51;64.26
55271;BME280;41132;47.162;9.470;2022-07-15T07:37:18;96801.09;;;23.82;62.73
55271;BME280;41132;47.162;9.470;2022-07-15T07:39:43;96799.03;;;24.07;64.78
55271;BME280;41132;47.162;9.470;2022-07-15T07:42:09;96800.56;;;24.67;62.64
55271;BME280;41132;47.162;9.470;2022-07-15T07:44:34;96786.59;;;24.53;60.76
55271;BME280;41132;47.162;9.470;2022-07-15T07:47:00;96790.00;;;24.49;59.96
55271;BME280;41132;47.162;9.470;2022-07-15T07:49:25;96779.38;;;24.42;60.37
55271;BME280;41132;47.162;9.470;2022-07-15T07:51:51;96779.59;;;24.41;61.13
55271;BME280;41132;47.162;9.470;2022-07-15T07:54:17;96778.78;;;25.55;59.05
55271;BME280;41132;47.162;9.470;2022-07-15T07:56:42;96773.06;;;25.68;56.37
55271;BME280;41132;47.162;9.470;2022-07-15T07:59:10;96775.16;;;24.46;58.40
55271;BME280;41132;47.162;9.470;2022-07-15T08:01:35;96771.69;;;24.34;59.02
55271;BME280;41132;47.162;9.470;2022-07-15T08:04:01;96767.75;;;24.13;60.68
55271;BME280;41132;47.162;9.470;2022-07-15T08:06:26;96764.25;;;24.76;60.48
55271;BME280;41132;47.162;9.470;2022-07-15T08:08:52;96768.00;;;24.64;59.44
55271;BME280;41132;47.162;9.470;2022-07-15T08:11:17;96762.88;;;24.91;59.60
55271;BME280;41132;47.162;9.470;2022-07-15T08:13:45;96757.75;;;26.41;63.03
55271;BME280;41132;47.162;9.470;2022-07-15T08:16:11;96757.22;;;25.33;61.00
55271;BME280;41132;47.162;9.470;2022-07-15T08:18:39;96764.03;;;25.40;61.52
55271;BME280;41132;47.162;9.470;2022-07-15T08:21:05;96772.38;;;25.56;57.32
55271;BME280;41132;47.162;9.470;2022-07-15T08:23:31;96761.75;;;25.66;58.81
55271;BME280;41132;47.162;9.470;2022-07-15T08:25:58;96756.72;;;25.19;59.75
55271;BME280;41132;47.162;9.470;2022-07-15T08:28:24;96768.88;;;25.10;60.56
55271;BME280;41132;47.162;9.470;2022-07-15T08:30:52;96770.06;;;25.48;60.02
55271;BME280;41132;47.162;9.470;2022-07-15T08:33:19;96764.13;;;25.29;61.16
55271;BME280;41132;47.162;9.470;2022-07-15T08:35:44;96764.69;;;25.48;59.39
55271;BME280;41132;47.162;9.470;2022-07-15T08:38:10;96759.72;;;25.56;59.11
55271;BME280;41132;47.162;9.470;2022-07-15T08:40:37;96763.75;;;25.88;57.83
55271;BME280;41132;47.162;9.470;2022-07-15T08:43:07;96757.38;;;25.60;60.97
55271;BME280;41132;47.162;9.470;2022-07-15T08:45:35;96769.91;;;25.54;57.94
55271;BME280;41132;47.162;9.470;2022-07-15T08:48:03;96769.59;;;25.05;59.87
55271;BME280;41132;47.162;9.470;2022-07-15T08:50:31;96763.94;;;25.86;61.50
55271;BME280;41132;47.162;9.470;2022-07-15T08:52:57;96766.56;;;25.47;61.75
55271;BME280;41132;47.162;9.470;2022-07-15T08:55:22;96766.53;;;24.44;57.42
55271;BME280;41132;47.162;9.470;2022-07-15T08:57:50;96776.78;;;24.59;58.76
55271;BME280;41132;47.162;9.470;2022-07-15T09:00:16;96771.81;;;24.51;60.26
55271;BME280;41132;47.162;9.470;2022-07-15T09:02:43;96775.78;;;24.48;58.42
55271;BME280;41132;47.162;9.470;2022-07-15T09:10:41;96776.81;;;24.88;59.87
55271;BME280;41132;47.162;9.470;2022-07-15T09:13:07;96768.03;;;25.38;59.83
55271;BME280;41132;47.162;9.470;2022-07-15T09:15:34;96770.22;;;25.41;58.08
55271;BME280;41132;47.162;9.470;2022-07-15T09:18:05;96769.03;;;25.03;55.49
55271;BME280;41132;47.162;9.470;2022-07-15T09:20:32;96770.22;;;24.95;57.26
55271;BME280;41132;47.162;9.470;2022-07-15T09:22:58;96771.41;;;25.62;59.73
55271;BME280;41132;47.162;9.470;2022-07-15T09:25:23;96767.25;;;25.09;56.39
55271;BME280;41132;47.162;9.470;2022-07-15T09:27:50;96762.94;;;25.08;58.25
55271;BME280;41132;47.162;9.470;2022-07-15T09:30:18;96768.69;;;25.28;60.56
55271;BME280;41132;47.162;9.470;2022-07-15T09:33:05;96769.41;;;25.24;58.27
55271;BME280;41132;47.162;9.470;2022-07-15T09:35:49;96760.78;;;25.72;56.83
55271;BME280;41132;47.162;9.470;2022-07-15T09:38:30;96766.56;;;25.30;57.14
55271;BME280;41132;47.162;9.470;2022-07-15T09:40:56;96769.03;;;25.03;60.68
55271;BME280;41132;47.162;9.470;2022-07-15T09:43:22;96772.91;;;25.41;59.17
55271;BME280;41132;47.162;9.470;2022-07-15T09:45:57;96762.75;;;25.94;62.30
55271;BME280;41132;47.162;9.470;2022-07-15T09:48:24;96762.25;;;25.97;59.54
55271;BME280;41132;47.162;9.470;2022-07-15T09:50:50;96768.13;;;25.43;56.67
55271;BME280;41132;47.162;9.470;2022-07-15T09:53:15;96762.16;;;25.41;57.17
55271;BME280;41132;47.162;9.470;2022-07-15T09:55:42;96757.78;;;25.35;57.22
55271;BME280;41132;47.162;9.470;2022-07-15T09:58:07;96752.16;;;25.70;58.66
55271;BME280;41132;47.162;9.470;2022-07-15T10:00:34;96766.50;;;25.42;56.57
55271;BME280;41132;47.162;9.470;2022-07-15T10:03:01;96759.97;;;25.72;59.24
55271;BME280;41132;47.162;9.470;2022-07-15T10:05:27;96757.94;;;26.57;60.94
55271;BME280;41132;47.162;9.470;2022-07-15T10:07:53;96756.78;;;26.31;57.36
55271;BME280;41132;47.162;9.470;2022-07-15T10:10:22;96743.63;;;26.34;55.32
55271;BME280;41132;47.162;9.470;2022-07-15T10:13:05;96753.53;;;26.51;56.57
55271;BME280;41132;47.162;9.470;2022-07-15T10:15:58;96752.66;;;27.16;55.30
55271;BME280;41132;47.162;9.470;2022-07-15T10:18:53;96756.63;;;26.59;50.25
55271;BME280;41132;47.162;9.470;2022-07-15T10:21:45;96749.53;;;26.53;54.20
55271;BME280;41132;47.162;9.470;2022-07-15T10:27:09;96760.28;;;26.53;52.46
55271;BME280;41132;47.162;9.470;2022-07-15T10:29:41;96751.53;;;26.63;56.16
55271;BME280;41132;47.162;9.470;2022-07-15T10:32:07;96747.81;;;26.91;54.52
55271;BME280;41132;47.162;9.470;2022-07-15T10:34:33;96739.53;;;26.49;55.58
55271;BME280;41132;47.162;9.470;2022-07-15T10:37:02;96739.22;;;26.67;54.90
55271;BME280;41132;47.162;9.470;2022-07-15T10:39:47;96737.31;;;26.90;56.66
55271;BME280;41132;47.162;9.470;2022-07-15T10:42:13;96731.00;;;27.06;52.34
55271;BME280;41132;47.162;9.470;2022-07-15T10:47:23;96737.91;;;26.70;56.56
55271;BME280;41132;47.162;9.470;2022-07-15T10:49:49;96727.97;;;27.02;60.07
55271;BME280;41132;47.162;9.470;2022-07-15T10:52:17;96736.22;;;26.41;59.61
55271;BME280;41132;47.162;9.470;2022-07-15T10:55:09;96733.50;;;27.18;60.89
55271;BME280;41132;47.162;9.470;2022-07-15T11:03:08;96727.06;;;25.81;57.77
55271;BME280;41132;47.162;9.470;2022-07-15T11:05:41;96721.34;;;25.95;57.92
55271;BME280;41132;47.162;9.470;2022-07-15T11:13:46;96714.94;;;26.40;62.53
55271;BME280;41132;47.162;9.470;2022-07-15T11:16:12;96713.69;;;26.25;59.99
55271;BME280;41132;47.162;9.470;2022-07-15T11:18:50;96701.19;;;25.75;65.62
55271;BME280;41132;47.162;9.470;2022-07-15T11:21:16;96699.69;;;26.23;61.22
55271;BME280;41132;47.162;9.470;2022-07-15T11:23:47;96704.19;;;25.96;63.44
55271;BME280;41132;47.162;9.470;2022-07-15T11:26:14;96682.50;;;25.86;61.79
55271;BME280;41132;47.162;9.470;2022-07-15T11:28:54;96683.41;;;25.91;60.85
55271;BME280;41132;47.162;9.470;2022-07-15T11:31:21;96697.91;;;25.73;60.89
55271;BME280;41132;47.162;9.470;2022-07-15T11:33:46;96687.59;;;26.04;61.67
55271;BME280;41132;47.162;9.470;2022-07-15T11:36:19;96691.63;;;25.84;59.70
55271;BME280;41132;47.162;9.470;2022-07-15T11:38:47;96690.97;;;25.94;62.30
55271;BME280;41132;47.162;9.470;2022-07-15T11:41:12;96682.09;;;25.94;62.84
55271;BME280;41132;47.162;9.470;2022-07-15T11:44:16;96680.28;;;25.99;64.04
55271;BME280;41132;47.162;9.470;2022-07-15T11:46:58;96680.59;;;25.86;61.34
55271;BME280;41132;47.162;9.470;2022-07-15T11:49:32;96688.84;;;25.96;62.44
55271;BME280;41132;47.162;9.470;2022-07-15T11:51:59;96683.56;;;25.84;62.00
55271;BME280;41132;47.162;9.470;2022-07-15T11:54:25;96678.84;;;25.75;61.28
55271;BME280;41132;47.162;9.470;2022-07-15T11:56:55;96680.97;;;25.73;58.08
55271;BME280;41132;47.162;9.470;2022-07-15T11:59:21;96683.53;;;25.62;59.26
55271;BME280;41132;47.162;9.470;2022-07-15T12:01:46;96675.53;;;25.68;62.66
55271;BME280;41132;47.162;9.470;2022-07-15T12:04:12;96666.31;;;25.63;61.56
55271;BME280;41132;47.162;9.470;2022-07-15T12:06:37;96675.69;;;25.61;63.78
55271;BME280;41132;47.162;9.470;2022-07-15T12:09:04;96666.34;;;25.86;65.35
55271;BME280;41132;47.162;9.470;2022-07-15T12:11:37;96670.09;;;26.01;61.33
55271;BME280;41132;47.162;9.470;2022-07-15T12:14:09;96666.31;;;25.63;59.30
55271;BME280;41132;47.162;9.470;2022-07-15T12:16:35;96667.34;;;25.79;61.41
55271;BME280;41132;47.162;9.470;2022-07-15T12:19:04;96670.38;;;25.66;62.74
55271;BME280;41132;47.162;9.470;2022-07-15T12:21:31;96667.59;;;25.78;61.80
55271;BME280;41132;47.162;9.470;2022-07-15T12:24:18;96668.72;;;25.82;61.73
55271;BME280;41132;47.162;9.470;2022-07-15T12:29:17;96652.41;;;25.67;61.51
55271;BME280;41132;47.162;9.470;2022-07-15T12:31:43;96658.81;;;25.44;58.11
55271;BME280;41132;47.162;9.470;2022-07-15T12:34:09;96663.44;;;25.48;59.31
55271;BME280;41132;47.162;9.470;2022-07-15T12:36:35;96657.06;;;25.54;61.36
55271;BME280;41132;47.162;9.470;2022-07-15T12:39:14;96662.47;;;25.37;57.81
55271;BME280;41132;47.162;9.470;2022-07-15T12:41:43;96664.91;;;25.39;60.11
55271;BME280;41132;47.162;9.470;2022-07-15T12:44:09;96663.50;;;25.53;62.19
55271;BME280;41132;47.162;9.470;2022-07-15T12:46:48;96669.06;;;25.47;59.01
55271;BME280;41132;47.162;9.470;2022-07-15T12:52:23;96656.72;;;25.68;58.60
55271;BME280;41132;47.162;9.470;2022-07-15T12:54:50;96664.81;;;25.34;58.25
55271;BME280;41132;47.162;9.470;2022-07-15T12:57:28;96658.75;;;25.21;59.22
55271;BME280;41132;47.162;9.470;2022-07-15T13:02:24;96656.69;;;25.29;59.60
55271;BME280;41132;47.162;9.470;2022-07-15T13:04:50;96662.47;;;25.37;57.49
55271;BME280;41132;47.162;9.470;2022-07-15T13:07:16;96655.16;;;25.33;56.41
55271;BME280;41132;47.162;9.470;2022-07-15T13:09:42;96664.97;;;25.27;57.82
55271;BME280;41132;47.162;9.470;2022-07-15T13:12:09;96657.84;;;25.33;59.27
55271;BME280;41132;47.162;9.470;2022-07-15T13:14:36;96663.38;;;25.26;59.04
55271;BME280;41132;47.162;9.470;2022-07-15T13:17:02;96658.88;;;25.32;57.86
55271;BME280;41132;47.162;9.470;2022-07-15T13:19:27;96660.03;;;25.36;57.71
55271;BME280;41132;47.162;9.470;2022-07-15T13:21:53;96661.31;;;25.33;56.67
55271;BME280;41132;47.162;9.470;2022-07-15T13:24:18;96663.38;;;25.26;56.46
55271;BME280;41132;47.162;9.470;2022-07-15T13:26:43;96657.63;;;25.56;55.16
55271;BME280;41132;47.162;9.470;2022-07-15T13:29:09;96655.66;;;25.69;54.24
55271;BME280;41132;47.162;9.470;2022-07-15T13:31:34;96650.47;;;25.45;56.14